« 熊本いくモン オレンジライナー 2015/2/17 tue | トップページ | 続・パラダイス 天草エアライン 2015/2/18 wed »

2015/02/21

パラダイス 天草エアライン 2015/2/18 wed

前日、熊本空港から九州産交バスを乗り継いで着いた場所は、天草市本渡。今日は、その本渡バスターミナルから出発です。

20150218_amx_00bus

早朝、生憎の曇りで、一日こんな状態ですかな。チョットがつかり。

20150218_amx_01bus

天草空港行きバスに揺られて、坂道を登りつめると・・・

20150218_amx_02rjda

天草空港に到着。石製のダッシュ8がお迎えです。

20150218_amx_03ja81am

2年前に新デザインになった「みぞか」号

AMX101 RJDA-RJFF JA81AM DHC-8-100

20150218_amx_04rjda

さっそく、カウンターで搭乗手続き。14年ぶりの天草エアライン搭乗。「一日親子イルカパラダイス2014」挑戦です。誓約書にサインして、福岡往復の101便と102便の搭乗券をもらいます。

20150218_amx_05rjda

セキュリティを通過して、エプロンへ。生憎天草空港のMETARは努力不足。

20150218_amx_06ja81am

大きなお目々がチャーミング。

20150218_amx_07ja81am

座席は、8E。くまモン席です。ゆっくり見れるのは、この機会だけです。

20150218_amx_08ja81am

機内での電子機器の利用制限が変更になりましたが、ダッシュ8は従来とおりなので、肝心の離着陸時は、NG。シュン。で、9000ftで巡航ですが、生憎の雲上で、地上は全く見れず。残念。

20150218_amx_09amx

機内には、お手製の案内資料のファイルがどっさり。ゆっくり見てる余裕が無かったので、(どーして?)一式コピーをもらっちゃいました。ありがとうございます。

RJFF 172330Z 31009KT 9999 FEW040 BKN050 08/M01 Q1018 RMK 1CU040 7SC050 A3007

20150218_amx_10ja81am

福岡も生憎の天候で、ILS36で着陸の模様でした。ここで給油です。第1ターミナルのフィンガーでJAL係員にピックアップされて、そのまま搭乗待合室へ。

20150218_amx_11rjff

予約時、なかなか空きがでなくて、苦慮した102便に搭乗します。

20150218_amx_12ja08fj

福岡空港も中小エアラインが増えて、FDAも当たり前に。

20150218_amx_13rjff

14番ゲートから歩いてスポットへ。福岡空港はスポット増設により、自走によるターンが無くなり、到着後にトーイングで向きが変えられています。

20150218_amx_14ja81am

AMX102 RJFF-RJDA JA81AM DHC-8-100

20150218_amx_15amx

今回は、最後列の艦長席・・ じゃなくって、右窓の10E。クラブのワンポイント切抜きが、おちゃめです。

20150218_amx_16amx

福岡から天草へも9000ftで巡航。上空から見たものは雲・くも・蜘蛛ちがぅぅ

20150218_amx_17amx

天草空港の電源車にもくまモンだー。

20150218_amx_18amx

なにやら、テレビクルーが・・・ どこなーん?

20150218_amx_19amx

次の搭乗手続きは、大阪往復が一括で、4枚をいただきます。

20150218_amx_20amx

ここにも、くまモン。

20150218_amx_21ja81am

AMX201 RJDA-RJFT JA81AM DHC-8-100

RJFT 180100Z 29007KT 9999 FEW025 SCT040 BKN050 07/M02 Q1018

20150218_amx_22ja81am

左エンジンには、「はるちゃん」

20150218_amx_23ja852a

熊本ではダッシュ8の兄弟も見れます。

20150218_amx_24rjft

熊本空港のマスコット「あそらくん」と「くまモン」

20150218_amx_25rjft

天草エアラインは、JALに運航支援を委託しているので、ターミナル東側7番登場口から。ジェットスターも同じ場所。

20150218_amx_26ja81am

また来たよ・・・

AMX801 RJFT-RJOO JA81AM DHC-8-100

20150218_amx_27amx

大阪伊丹行きは、9E。チョット寂し目。乗継以外の熊本からの利用増進を図らないとネ!

20150218_amx_28amx

伊丹線では時間が長いので、地元熊本の「みかんちゃん」と本物みかん。まさしく、くまモンサプライズ!

20150218_amx_29ja81am

伊丹到着は、12時ごろ。ここは少々ターンアラウンドが長いようで、昼食タイムですかな。

RJOO 180900Z 31004KT 270V360 9999 FEW020 SCT060 07/02 Q1013 RMK 1CU020 3SC060 A2991

20150218_amx_30ja81am

小生も機内でパクつきたいのを。

20150218_amx_31dhc8

はい、ここでもダッシュ8の兄弟。日本エアコミューターのQ400。

20150218_amx_32ja81am

AMX802 RJOO-RJFT JA81AM DHC-8-100

5たび搭乗。ここまでくると、まるで観光バスの乗り。チョットトイレ休憩みないなものです。

20150218_amx_33murakami

始発の福岡便からアテンドしてくださるのは、CAの村上さん。

20150218_amx_34murakami

お願いして、くまモンエプロンでパシャさせてもらいました。(ご本人承諾済み)

20150218_amx_35rjob

大阪ー熊本は瀬戸内海上空で雲がところどころ開けていて、遠く岡山空港を視認できた。

20150218_amx_36ja81am

しまなみ海道は、因島が良く見えました。

RJFT 180500Z 29007KT 260V330 9999 SCT040 BKN050 08/M02 Q1016

20150218_amx_37ja81am

熊本到着。天候はパラパラ振り。

20150218_amx_38rjft

熊本から天草に帰ります。

20150218_amx_39ja81am

よお、じゃなくて むお です。熊本-天草は巡航 4000ft 雲中飛行となりました。

AMX202 RJFT-RJDA JA81AM DHC-8-100

20150218_amx_40amx

かろうじて視認できた熊本駅。

20150218_amx_41ja81am

2度目の天草到着。ここで朝からの乗員さんがお終いです。キャプテンは、航空自衛隊出身元政府専用機機長 小松さん 副操縦士は、金子さん。CAは、スタイリッシュで笑顔が素敵な、村上茉莉子さんでした。ここまで、ありがとうございました。楽しいフライトでした。

20150218_amx_42rjda

エプロンから天草空港ビルに入るところで、くまモンがWELCOME。

この後は、続編につづく・・・

|

« 熊本いくモン オレンジライナー 2015/2/17 tue | トップページ | 続・パラダイス 天草エアライン 2015/2/18 wed »

福岡空港」カテゴリの記事

大阪国際空港」カテゴリの記事

熊本空港」カテゴリの記事

天草空港」カテゴリの記事

コメント

コメントを書く



(ウェブ上には掲載しません)


コメントは記事投稿者が公開するまで表示されません。



トラックバック


この記事へのトラックバック一覧です: パラダイス 天草エアライン 2015/2/18 wed:

« 熊本いくモン オレンジライナー 2015/2/17 tue | トップページ | 続・パラダイス 天草エアライン 2015/2/18 wed »